Time;durP1;ratioP1;P1;durP2;ratioP2;P2;SDS_P1;SDS_P2;PMS_P1;PMS_P2;Temp;Humidity;BMP_temperature;BMP_pressure;BME280_temperature;BME280_humidity;BME280_pressure;Samples;Min_cycle;Max_cycle;Signal;HPM_P1;HPM_P2
2022/10/05 00:00:18;;;;;;;;;8.00;8.00;;;;;16.11;100.00;101235.91;4873703;29;45460;-84
2022/10/05 00:02:45;;;;;;;;;7.00;7.00;;;;;16.07;100.00;101223.38;4872008;29;45382;-84
2022/10/05 00:05:31;;;;;;;;;6.00;6.00;;;;;16.11;100.00;101226.97;4873640;29;44720;-84
2022/10/05 00:08:18;;;;;;;;;9.00;7.00;;;;;16.18;100.00;101234.13;4871839;29;47052;-84
2022/10/05 00:10:45;;;;;;;;;9.33;8.00;;;;;16.24;100.00;101219.78;4872326;29;45987;-84
2022/10/05 00:13:19;;;;;;;;;9.00;7.67;;;;;16.26;100.00;101213.53;4872861;29;45382;-84
2022/10/05 00:15:44;;;;;;;;;9.00;8.00;;;;;16.37;100.00;101226.91;4874022;29;45419;-84
2022/10/05 00:18:19;;;;;;;;;8.33;7.33;;;;;16.42;100.00;101218.84;4871930;29;46981;-84
2022/10/05 00:20:46;;;;;;;;;7.67;7.67;;;;;16.45;100.00;101225.09;4864996;29;45409;-84
2022/10/05 00:23:28;;;;;;;;;6.67;6.67;;;;;16.35;100.00;101194.69;4872941;29;44706;-85
2022/10/05 00:26:00;;;;;;;;;5.00;5.00;;;;;16.52;100.00;101215.25;4872373;29;44822;-84
2022/10/05 00:28:29;;;;;;;;;9.00;7.00;;;;;16.56;100.00;101215.25;4872895;29;45392;-85
2022/10/05 00:30:56;;;;;;;;;6.33;6.33;;;;;16.56;100.00;101201.81;4873586;29;44832;-84
2022/10/05 00:33:22;;;;;;;;;7.67;7.67;;;;;16.65;100.00;101205.38;4872335;29;44739;-85
2022/10/05 00:35:48;;;;;;;;;6.67;6.67;;;;;16.69;100.00;101204.47;4871750;29;45500;-84
2022/10/05 00:38:13;;;;;;;;;6.00;5.25;;;;;16.68;100.00;101194.59;4885908;29;46676;-85
2022/10/05 00:40:44;;;;;;;;;5.67;5.67;;;;;16.74;100.00;101202.63;4873275;29;45411;-84
2022/10/05 00:43:22;;;;;;;;;4.00;4.00;;;;;16.75;100.00;101202.63;4871359;29;45416;-84
2022/10/05 00:45:58;;;;;;;;;6.00;6.00;;;;;16.72;100.00;101191.00;4872852;29;44775;-85
2022/10/05 00:48:29;;;;;;;;;8.00;8.00;;;;;16.82;100.00;101197.28;4869754;29;45333;-84
2022/10/05 00:51:10;;;;;;;;;6.67;6.67;;;;;16.84;100.00;101198.16;4869722;29;45478;-85
2022/10/05 00:54:07;;;;;;;;;5.33;4.33;;;;;16.83;100.00;101194.59;4881544;29;45371;-84
2022/10/05 00:56:57;;;;;;;;;9.33;7.00;;;;;16.83;100.00;101201.75;4872888;29;45530;-85
2022/10/05 00:59:41;;;;;;;;;9.00;9.00;;;;;16.82;100.00;101195.47;4873469;29;45214;-85
2022/10/05 01:02:57;;;;;;;;;4.33;4.33;;;;;16.83;100.00;101194.59;4873205;29;45371;-85
2022/10/05 01:05:49;;;;;;;;;6.67;6.33;;;;;16.84;100.00;101190.97;4816748;29;45471;-85
2022/10/05 01:08:33;;;;;;;;;9.75;7.75;;;;;16.80;100.00;101195.47;4816297;29;45471;-84
2022/10/05 01:11:27;;;;;;;;;6.67;6.67;;;;;16.79;100.00;101199.03;4815966;29;45624;-85
2022/10/05 01:14:23;;;;;;;;;8.33;8.33;;;;;16.78;100.00;101199.03;4812015;29;45835;-85
2022/10/05 01:17:03;;;;;;;;;6.00;6.00;;;;;16.67;100.00;101180.28;4797073;29;45553;-84
2022/10/05 01:20:10;;;;;;;;;10.33;10.33;;;;;16.75;100.00;101191.91;4782284;29;45439;-84
2022/10/05 01:22:54;;;;;;;;;8.00;8.00;;;;;16.73;100.00;101195.50;4761063;29;45555;-84
2022/10/05 01:25:32;;;;;;;;;7.67;7.67;;;;;16.65;100.00;101181.22;4778291;29;45036;-84
2022/10/05 01:28:26;;;;;;;;;6.33;6.33;;;;;16.60;100.00;101187.50;4765376;29;45458;-84
2022/10/05 01:31:04;;;;;;;;;9.00;8.67;;;;;16.60;100.00;101181.19;4780031;29;45586;-85
2022/10/05 01:33:39;;;;;;;;;8.33;8.33;;;;;16.57;100.00;101179.44;4765518;29;46801;-85
2022/10/05 01:36:26;;;;;;;;;6.67;6.00;;;;;16.50;100.00;101169.63;4765470;29;44857;-85
2022/10/05 01:39:09;;;;;;;;;8.00;8.00;;;;;16.55;100.00;101186.59;4766450;29;44849;-84
2022/10/05 01:41:51;;;;;;;;;6.33;6.33;;;;;16.62;100.00;101173.16;4783114;29;45531;-84
2022/10/05 01:44:23;;;;;;;;;7.00;7.00;;;;;16.58;100.00;101161.50;4872600;29;48484;-85
2022/10/05 01:47:02;;;;;;;;;5.67;5.67;;;;;16.70;100.00;101174.00;4871970;29;45538;-84
2022/10/05 01:49:37;;;;;;;;;4.67;4.33;;;;;16.71;100.00;101163.25;4870923;29;45461;-85
2022/10/05 01:52:41;;;;;;;;;5.00;4.33;;;;;16.75;100.00;101164.16;4871242;29;44891;-85
2022/10/05 01:55:31;;;;;;;;;4.00;4.00;;;;;16.80;100.00;101165.91;4869817;29;45426;-85
2022/10/05 01:58:07;;;;;;;;;5.33;5.33;;;;;16.84;100.00;101158.75;4868789;29;44796;-84
2022/10/05 02:01:07;;;;;;;;;5.00;5.00;;;;;16.80;100.00;101156.94;4899849;29;45473;-84
2022/10/05 02:04:03;;;;;;;;;4.00;4.00;;;;;16.79;100.00;101155.19;4873482;29;45465;-85
2022/10/05 02:06:35;;;;;;;;;6.33;4.67;;;;;16.84;100.00;101150.69;4873604;29;47559;-84
2022/10/05 02:09:09;;;;;;;;;5.00;5.00;;;;;16.88;100.00;101156.94;4889126;29;45760;-84
2022/10/05 02:11:39;;;;;;;;;7.33;3.00;;;;;16.89;100.00;101148.00;4890338;29;45342;-85
2022/10/05 02:14:21;;;;;;;;;4.33;4.33;;;;;16.89;100.00;101146.19;4892269;29;44816;-84
2022/10/05 02:16:50;;;;;;;;;5.00;5.00;;;;;16.88;100.00;101146.19;4889549;29;45390;-84
2022/10/05 02:19:20;;;;;;;;;5.33;5.00;;;;;16.81;100.00;101139.97;4890312;29;45574;-84
2022/10/05 02:22:11;;;;;;;;;3.00;3.00;;;;;16.89;100.00;101142.63;4874125;29;45432;-84
2022/10/05 02:24:44;;;;;;;;;5.00;5.00;;;;;16.85;100.00;101131.00;4873432;29;45380;-83
2022/10/05 02:27:16;;;;;;;;;5.25;5.00;;;;;16.86;100.00;101135.44;4890542;29;45245;-84
2022/10/05 02:29:47;;;;;;;;;2.75;2.75;;;;;16.89;100.00;101140.81;4890153;29;45472;-84
2022/10/05 02:32:22;;;;;;;;;5.25;5.25;;;;;16.88;100.00;101128.28;4890258;29;45375;-84
2022/10/05 02:34:49;;;;;;;;;4.25;4.25;;;;;16.90;100.00;101133.66;4874424;29;45266;-85
2022/10/05 02:37:30;;;;;;;;;5.00;5.00;;;;;16.89;100.00;101118.44;4874711;29;47052;-85
2022/10/05 02:40:14;;;;;;;;;4.00;3.00;;;;;16.87;100.00;101123.81;4889613;29;45405;-84
2022/10/05 02:42:55;;;;;;;;;4.00;4.00;;;;;16.86;100.00;101119.34;4889621;29;45301;-85
2022/10/05 02:45:23;;;;;;;;;3.00;3.00;;;;;16.82;100.00;101122.94;4877882;29;45832;-85
2022/10/05 02:48:01;;;;;;;;;4.00;4.00;;;;;16.81;100.00;101115.81;4875692;29;46973;-84
2022/10/05 02:50:39;;;;;;;;;3.00;3.00;;;;;16.79;100.00;101117.56;4877185;29;45266;-85
2022/10/05 02:53:35;;;;;;;;;4.00;2.25;;;;;16.80;100.00;101119.34;4875476;29;44808;-85
2022/10/05 02:56:30;;;;;;;;;4.00;4.00;;;;;16.82;100.00;101120.25;4875875;29;44759;-84
2022/10/05 02:59:09;;;;;;;;;4.00;4.00;;;;;16.80;100.00;101111.28;4836657;29;47212;-84
2022/10/05 03:01:49;;;;;;;;;2.50;2.50;;;;;16.79;100.00;101112.19;4836807;29;45512;-84
2022/10/05 03:04:39;;;;;;;;;4.00;4.00;;;;;16.79;100.00;101113.09;4836474;29;45481;-84
2022/10/05 03:07:17;;;;;;;;;4.75;4.75;;;;;16.75;100.00;101107.75;4851933;29;45408;-85
2022/10/05 03:09:51;;;;;;;;;3.00;3.00;;;;;16.77;100.00;101103.25;4852391;29;45420;-85
2022/10/05 03:12:33;;;;;;;;;4.75;3.50;;;;;16.77;100.00;101103.25;4855502;29;45315;-84
2022/10/05 03:15:07;;;;;;;;;6.25;5.00;;;;;16.73;100.00;101106.88;4838345;29;45420;-84
2022/10/05 03:17:44;;;;;;;;;9.33;8.00;;;;;16.65;100.00;101101.53;4855058;29;46012;-85
2022/10/05 03:20:15;;;;;;;;;7.00;7.00;;;;;16.62;100.00;101097.97;4855823;29;45524;-84
2022/10/05 03:22:46;;;;;;;;;11.67;11.67;;;;;16.65;100.00;101098.84;4840188;29;45302;-84
2022/10/05 03:25:20;;;;;;;;;12.67;12.67;;;;;16.62;100.00;101092.59;4855821;29;44892;-85
2022/10/05 03:28:15;;;;;;;;;8.67;8.67;;;;;16.53;100.00;101083.69;4841339;29;45602;-84
2022/10/05 03:30:43;;;;;;;;;9.00;8.67;;;;;16.50;100.00;101091.75;4841151;29;47217;-84
2022/10/05 03:33:27;;;;;;;;;4.00;4.00;;;;;16.46;100.00;101081.94;4841170;29;45372;-85
2022/10/05 03:36:11;;;;;;;;;4.00;4.00;;;;;16.40;100.00;101088.22;4868622;29;45378;-84
2022/10/05 03:38:46;;;;;;;;;7.00;6.00;;;;;16.33;100.00;101080.19;4877689;29;45364;-84
2022/10/05 03:41:14;;;;;;;;;3.67;3.00;;;;;16.25;100.00;101079.34;4892873;29;47241;-84
2022/10/05 03:43:58;;;;;;;;;4.00;4.00;;;;;16.17;100.00;101082.94;4877804;29;45278;-84
2022/10/05 03:47:05;;;;;;;;;5.50;4.25;;;;;16.13;100.00;101086.53;4883695;29;44794;-84
2022/10/05 03:49:38;;;;;;;;;3.33;3.33;;;;;16.07;100.00;101082.97;4820243;29;45417;-85
2022/10/05 03:52:16;;;;;;;;;3.33;3.33;;;;;16.00;100.00;101076.75;4802963;29;48051;-84
2022/10/05 03:54:50;;;;;;;;;4.00;4.00;;;;;15.98;100.00;101068.69;4818923;29;45646;-84
2022/10/05 03:57:24;;;;;;;;;3.33;3.33;;;;;15.91;100.00;101066.03;4818831;29;45383;-84
2022/10/05 04:00:22;;;;;;;;;3.00;3.00;;;;;15.87;100.00;101070.50;4836312;29;45422;-84
2022/10/05 04:03:08;;;;;;;;;4.00;4.00;;;;;15.83;100.00;101075.88;4836201;29;45549;-84
2022/10/05 04:05:54;;;;;;;;;4.00;4.00;;;;;15.76;100.00;101083.94;4820862;29;45673;-84
2022/10/05 04:08:41;;;;;;;;;3.33;3.33;;;;;15.72;100.00;101079.47;4836562;29;45484;-84
2022/10/05 04:11:24;;;;;;;;;4.00;4.00;;;;;15.64;100.00;101072.31;4820935;29;45363;-85
2022/10/05 04:14:13;;;;;;;;;2.33;2.33;;;;;15.62;100.00;101072.31;4820622;29;47012;-84
2022/10/05 04:17:04;;;;;;;;;7.00;4.33;;;;;15.58;100.00;101079.47;4830363;29;46232;-85
2022/10/05 04:19:44;;;;;;;;;6.00;5.67;;;;;15.45;100.00;101064.31;4835196;29;45564;-84
2022/10/05 04:22:26;;;;;;;;;5.33;5.33;;;;;15.47;100.00;101078.59;4836373;29;45477;-84
2022/10/05 04:24:54;;;;;;;;;5.00;5.00;;;;;15.45;100.00;101071.44;4836846;29;45800;-84
2022/10/05 04:27:32;;;;;;;;;5.00;5.00;;;;;15.37;100.00;101060.69;4887609;28;45438;-84
2022/10/05 04:30:12;;;;;;;;;4.00;4.00;;;;;15.37;100.00;101068.75;4858863;29;45538;-84
2022/10/05 04:32:42;;;;;;;;;6.33;5.33;;;;;15.35;100.00;101065.16;4858247;29;45546;-85
2022/10/05 04:35:29;;;;;;;;;5.33;4.33;;;;;15.36;100.00;101067.84;4874131;29;47696;-85
2022/10/05 04:38:13;;;;;;;;;5.00;5.00;;;;;15.34;100.00;101061.59;4882673;29;45363;-84
2022/10/05 04:41:12;;;;;;;;;5.67;5.67;;;;;15.30;100.00;101065.19;4883601;29;45484;-84
2022/10/05 04:43:56;;;;;;;;;4.33;4.33;;;;;15.31;100.00;101064.31;4873534;29;45469;-85
2022/10/05 04:46:52;;;;;;;;;5.67;4.00;;;;;15.31;100.00;101058.03;4874602;29;46071;-84
2022/10/05 04:49:49;;;;;;;;;4.00;4.00;;;;;15.30;100.00;101057.16;4873604;29;45291;-84
2022/10/05 04:52:22;;;;;;;;;4.00;3.50;;;;;15.32;100.00;101058.03;4879188;29;44813;-85
2022/10/05 04:55:03;;;;;;;;;3.25;3.25;;;;;15.27;100.00;101050.88;4882657;29;45376;-85
2022/10/05 04:57:47;;;;;;;;;5.00;5.00;;;;;15.31;100.00;101052.66;4874126;29;45501;-84
2022/10/05 05:00:25;;;;;;;;;5.00;5.00;;;;;15.27;100.00;101046.44;4873209;29;45627;-84
2022/10/05 05:03:20;;;;;;;;;5.50;4.00;;;;;15.25;100.00;101041.94;4857557;29;45922;-85
2022/10/05 05:06:06;;;;;;;;;3.25;3.25;;;;;15.24;100.00;101040.19;4873318;29;45403;-84
2022/10/05 05:08:46;;;;;;;;;3.75;3.00;;;;;15.24;100.00;101046.44;4890056;29;47280;-85
2022/10/05 05:11:27;;;;;;;;;4.00;4.00;;;;;15.20;100.00;101033.94;4874042;29;45438;-85
2022/10/05 05:14:15;;;;;;;;;4.00;4.00;;;;;15.17;100.00;101039.31;4857879;29;45262;-85
2022/10/05 05:16:42;;;;;;;;;5.67;4.67;;;;;15.13;100.00;101037.53;4885286;29;45413;-85
2022/10/05 05:19:25;;;;;;;;;4.00;4.00;;;;;15.05;100.00;101033.91;4893251;29;46174;-85
2022/10/05 05:21:56;;;;;;;;;4.67;4.67;;;;;15.10;100.00;101037.50;4874974;29;45649;-85
2022/10/05 05:25:05;;;;;;;;;5.50;5.50;;;;;15.09;100.00;101038.38;4891320;29;45284;-85
2022/10/05 05:27:57;;;;;;;;;5.67;5.00;;;;;15.09;100.00;101041.06;4906228;29;45599;-85
2022/10/05 05:30:24;;;;;;;;;5.00;5.00;;;;;15.06;100.00;101030.34;4893379;29;45720;-85
2022/10/05 05:32:58;;;;;;;;;4.00;4.00;;;;;15.06;100.00;101031.25;4907604;29;45445;-85
2022/10/05 05:35:42;;;;;;;;;3.00;3.00;;;;;15.04;100.00;101024.09;4893728;29;44784;-85
2022/10/05 05:38:46;;;;;;;;;5.67;5.67;;;;;15.04;100.00;101029.47;4892025;29;45892;-84
2022/10/05 05:41:21;;;;;;;;;5.00;5.00;;;;;15.02;100.00;101032.13;4893268;29;46510;-84
2022/10/05 05:44:27;;;;;;;;;5.00;5.00;;;;;14.98;100.00;101020.53;4892286;29;45503;-84
2022/10/05 05:46:56;;;;;;;;;6.00;5.00;;;;;14.93;100.00;101021.44;4908269;29;45477;-84
2022/10/05 05:49:53;;;;;;;;;4.50;4.50;;;;;14.92;100.00;101028.56;4893970;29;45349;-84
2022/10/05 05:52:28;;;;;;;;;5.00;5.00;;;;;14.91;100.00;101024.09;4876093;28;48283;-84
2022/10/05 05:55:02;;;;;;;;;5.33;5.33;;;;;14.90;100.00;101029.44;4875733;29;45536;-84
2022/10/05 05:57:46;;;;;;;;;4.00;4.00;;;;;14.87;100.00;101025.00;4893504;28;44823;-83
2022/10/05 06:00:14;;;;;;;;;5.00;5.00;;;;;14.87;100.00;101025.00;4892757;29;45466;-85
2022/10/05 06:02:56;;;;;;;;;6.00;6.00;;;;;14.83;100.00;101023.22;4907518;28;49218;-84
2022/10/05 06:05:46;;;;;;;;;6.00;5.25;;;;;14.81;100.00;101025.00;4876780;29;45432;-83
2022/10/05 06:08:43;;;;;;;;;6.67;6.00;;;;;14.81;100.00;101030.34;4893638;29;45287;-85
2022/10/05 06:11:23;;;;;;;;;7.25;5.75;;;;;14.78;100.00;101031.25;4893683;29;44798;-84
2022/10/05 06:13:49;;;;;;;;;4.25;3.50;;;;;14.79;100.00;101026.78;4876722;29;46649;-85
2022/10/05 06:16:33;;;;;;;;;6.00;6.00;;;;;14.82;100.00;101024.09;4892926;29;45469;-86
2022/10/05 06:19:04;;;;;;;;;6.67;6.67;;;;;14.82;100.00;101026.75;4888469;28;45339;-86
2022/10/05 06:28:15;;;;;;;;;8.00;6.00;;;;;14.89;100.00;101025.88;4895106;28;45351;-87
2022/10/05 06:30:45;;;;;;;;;4.33;4.33;;;;;14.96;100.00;101027.66;4888611;29;44744;-87
2022/10/05 06:33:48;;;;;;;;;5.00;5.00;;;;;15.00;100.00;101026.78;4893518;29;45446;-83
2022/10/05 06:36:19;;;;;;;;;8.00;6.33;;;;;15.05;100.00;101025.88;4876790;29;47104;-85
2022/10/05 06:39:00;;;;;;;;;5.67;5.00;;;;;15.05;100.00;101033.91;4877709;29;45400;-86
2022/10/05 06:42:01;;;;;;;;;9.67;6.67;;;;;15.06;100.00;101035.72;4896482;28;45390;-84
2022/10/05 06:44:35;;;;;;;;;8.67;6.33;;;;;14.92;100.00;101012.47;4880900;28;45417;-85
2022/10/05 06:47:22;;;;;;;;;6.67;6.67;;;;;15.08;100.00;101040.16;4887037;29;46958;-84
2022/10/05 06:50:06;;;;;;;;;8.00;6.00;;;;;15.10;100.00;101040.19;4876545;29;45486;-84
2022/10/05 06:52:41;;;;;;;;;9.00;7.00;;;;;15.13;100.00;101024.13;4875231;29;44804;-85
2022/10/05 06:55:14;;;;;;;;;6.00;6.00;;;;;15.14;100.00;101031.25;4890079;29;45456;-85
2022/10/05 06:58:15;;;;;;;;;7.33;7.33;;;;;15.15;100.00;101028.59;4877880;29;46853;-85
2022/10/05 07:00:57;;;;;;;;;10.00;8.33;;;;;15.17;100.00;101028.59;4893475;29;45804;-85
2022/10/05 07:03:34;;;;;;;;;8.33;8.33;;;;;15.21;100.00;101033.06;4881712;29;45843;-85
2022/10/05 07:06:18;;;;;;;;;13.67;7.67;;;;;15.23;100.00;101025.91;4877778;29;45308;-85
2022/10/05 07:09:07;;;;;;;;;13.00;11.00;;;;;15.32;100.00;101023.19;4877976;29;48024;-86
2022/10/05 07:11:52;;;;;;;;;7.33;7.33;;;;;15.51;100.00;101041.94;4895121;29;45437;-85
2022/10/05 07:14:27;;;;;;;;;6.67;6.00;;;;;15.62;100.00;101036.56;4895697;29;45859;-85
2022/10/05 07:16:55;;;;;;;;;7.33;7.00;;;;;15.71;100.00;101041.91;4879215;29;45448;-85
2022/10/05 07:19:36;;;;;;;;;7.00;7.00;;;;;15.75;100.00;101033.91;4877736;29;47828;-84
2022/10/05 07:22:33;;;;;;;;;8.00;8.00;;;;;15.88;100.00;101045.47;4877086;29;45334;-85
2022/10/05 07:25:12;;;;;;;;;6.33;6.00;;;;;15.96;100.00;101048.13;4889439;29;45554;-86
2022/10/05 07:28:06;;;;;;;;;6.33;6.33;;;;;16.10;100.00;101057.03;4881765;29;45443;-85
2022/10/05 07:30:49;;;;;;;;;6.00;6.00;;;;;16.19;100.00;101053.41;4878218;28;45588;-85
2022/10/05 07:33:32;;;;;;;;;6.00;6.00;;;;;16.19;100.00;101059.66;4889235;29;44803;-85
2022/10/05 07:39:15;;;;;;;;;5.00;5.00;;;;;16.32;100.00;101062.28;4894495;29;45352;-85
2022/10/05 07:41:46;;;;;;;;;6.67;6.00;;;;;16.40;100.00;101065.84;4892894;29;47270;-85
2022/10/05 07:44:22;;;;;;;;;2.00;2.00;;;;;16.45;100.00;101072.09;4896194;29;45343;-84
2022/10/05 07:46:53;;;;;;;;;6.00;6.00;;;;;16.51;100.00;101073.84;4883032;29;45284;-86
2022/10/05 07:49:37;;;;;;;;;10.00;8.33;;;;;16.56;100.00;101080.06;4894997;29;45355;-86
2022/10/05 07:52:10;;;;;;;;;15.00;15.00;;;;;16.66;100.00;101072.88;4876541;29;46624;-85
2022/10/05 07:54:46;;;;;;;;;8.33;7.00;;;;;16.73;100.00;101069.25;4877248;29;45347;-85
2022/10/05 07:57:30;;;;;;;;;9.00;8.00;;;;;16.72;100.00;101062.09;4879300;29;44767;-85
2022/10/05 07:59:59;;;;;;;;;10.50;7.00;;;;;16.89;100.00;101081.72;4889048;29;45528;-85
2022/10/05 08:02:24;;;;;;;;;6.67;6.00;;;;;16.98;100.00;101075.38;4896107;29;45599;-85
2022/10/05 08:04:59;;;;;;;;;8.00;7.33;;;;;17.12;100.00;101076.16;4895430;29;44764;-85
2022/10/05 08:07:28;;;;;;;;;5.00;5.00;;;;;17.22;100.00;101068.06;4890556;29;44915;-84
2022/10/05 08:10:02;;;;;;;;;7.33;6.33;;;;;17.26;100.00;101062.63;4894428;29;45342;-83
2022/10/05 08:13:10;;;;;;;;;5.75;4.75;;;;;17.37;100.00;101074.19;4893840;29;47478;-85
2022/10/05 08:16:08;;;;;;;;;7.00;6.00;;;;;17.38;100.00;101061.63;4881919;29;45365;-85
2022/10/05 08:19:21;;;;;;;;;3.00;3.00;;;;;17.66;100.00;101075.72;4916911;29;44820;-87
2022/10/05 08:22:37;;;;;;;;;6.00;5.25;;;;;17.84;100.00;101074.69;4899728;28;45568;-85
2022/10/05 08:26:28;;;;;;;;;;;;;;;;;;;;;
2022/10/05 08:28:38;;;;;;;;;7.00;7.00;;;;;18.01;100.00;101042.19;4853314;29;44835;-84
2022/10/05 08:31:23;;;;;;;;;4.50;4.00;;;;;18.22;100.00;101059.91;4917039;29;45445;-85
2022/10/05 08:34:30;;;;;;;;;7.25;7.25;;;;;18.25;100.00;101076.00;4898577;29;44894;-85
2022/10/05 08:37:20;;;;;;;;;7.00;6.75;;;;;18.26;100.00;101082.25;4915458;29;46313;-85
2022/10/05 08:40:17;;;;;;;;;5.50;3.25;;;;;18.33;100.00;101083.97;4915382;29;45597;-85
2022/10/05 08:43:33;;;;;;;;;5.00;5.00;;;;;18.37;100.00;101081.22;4882321;29;44769;-85
2022/10/05 08:46:29;;;;;;;;;5.00;5.00;;;;;18.22;100.00;101040.13;4916023;29;45590;-86
2022/10/05 08:49:54;;;;;;;;;;;;;;;;;;;;;
2022/10/05 08:53:26;;;;;;;;;;;;;;;;;;;;;
2022/10/05 08:56:33;;;;;;;;;9.33;7.00;;;;;18.77;100.00;101080.69;4882065;29;68177;-86
2022/10/05 08:59:35;;;;;;;;;6.00;6.00;;;;;18.87;100.00;101092.25;4916071;28;45616;-87
2022/10/05 09:02:34;;;;;;;;;4.25;4.25;;;;;18.86;100.00;101078.81;4914903;28;45646;-87
2022/10/05 09:05:44;;;;;;;;;8.75;6.00;;;;;18.96;100.00;101099.31;4895242;29;45464;-86
2022/10/05 09:12:39;;;;;;;;;6.00;6.00;;;;;19.04;100.00;101096.50;4885679;29;45596;-87
2022/10/05 09:15:30;;;;;;;;;;;;;;;;;;;;;
2022/10/05 09:59:05;;;;;;;;;6.00;6.00;;;;;19.34;100.00;101106.81;4872664;29;45645;-86
2022/10/05 10:02:15;;;;;;;;;5.33;5.33;;;;;19.34;100.00;101100.53;4854874;29;45367;-86
2022/10/05 10:05:41;;;;;;;;;3.33;3.00;;;;;19.31;100.00;101087.06;4859808;29;45390;-87
2022/10/05 10:09:04;;;;;;;;;;;;;;;;;;;;;
2022/10/05 10:16:03;;;;;;;;;;;;;;;;;;;;;
2022/10/05 10:19:18;;;;;;;;;3.00;3.00;;;;;19.58;98.83;101085.72;4856955;29;68467;-87
2022/10/05 11:53:25;;;;;;;;;4.00;3.50;;;;;19.82;97.99;100976.47;4898497;29;44939;-89
2022/10/05 11:56:46;;;;;;;;;;;;;;;;;;;;;
2022/10/05 11:59:59;;;;;;;;;3.00;3.00;;;;;20.25;99.12;101017.88;4818225;29;74641;-87
2022/10/05 12:03:16;;;;;;;;;3.00;3.00;;;;;20.20;99.17;100990.97;4802966;29;45489;-87
2022/10/05 12:19:26;;;;;;;;;3.00;3.00;;;;;20.98;97.77;100990.97;4916747;28;46145;-86
2022/10/05 12:22:16;;;;;;;;;3.25;2.25;;;;;21.13;95.00;100979.78;4905923;28;45395;-85
2022/10/05 12:25:25;;;;;;;;;3.00;3.00;;;;;21.30;95.38;100989.25;4906480;28;44733;-86
2022/10/05 12:28:38;;;;;;;;;2.00;2.00;;;;;21.43;92.20;100987.16;4902389;28;45438;-87
2022/10/05 13:06:06;;;;;;;;;5.75;5.50;;;;;22.14;90.70;101000.47;4861697;29;44689;-87
2022/10/05 13:09:23;;;;;;;;;5.75;5.00;;;;;22.13;89.68;100989.66;4877853;29;45345;-86
2022/10/05 13:12:13;;;;;;;;;6.00;6.00;;;;;22.23;89.14;101001.13;4875484;29;45430;-86
2022/10/05 13:15:09;;;;;;;;;4.00;3.75;;;;;22.25;89.32;100991.16;4877939;29;44911;-86
2022/10/05 13:21:49;;;;;;;;;6.00;6.00;;;;;22.26;86.83;100999.25;4881346;28;44965;-87
2022/10/05 13:43:39;;;;;;;;;6.00;5.50;;;;;22.37;88.08;101007.91;4894264;29;46357;-88
2022/10/05 13:46:22;;;;;;;;;5.00;5.00;;;;;22.22;89.19;101010.16;4910616;29;44759;-88
2022/10/05 13:49:20;;;;;;;;;6.75;6.75;;;;;22.08;89.99;101010.59;4895080;29;45386;-87
2022/10/05 13:52:30;;;;;;;;;8.00;7.00;;;;;21.98;89.55;101016.28;4895990;29;44825;-87
2022/10/05 13:56:05;;;;;;;;;4.75;4.75;;;;;21.93;91.87;101017.34;4896112;29;45235;-87
2022/10/05 13:59:20;;;;;;;;;5.00;5.00;;;;;22.04;91.44;101022.47;4899938;29;45206;-86
2022/10/05 14:02:15;;;;;;;;;6.00;6.00;;;;;22.11;89.88;101016.78;4900456;29;44876;-87
2022/10/05 14:04:49;;;;;;;;;5.50;5.50;;;;;21.92;89.87;100992.09;4873608;29;45314;-87
2022/10/05 14:07:37;;;;;;;;;10.00;8.75;;;;;22.10;90.80;101009.63;4878112;29;47155;-86
2022/10/05 14:10:11;;;;;;;;;6.25;6.25;;;;;22.18;90.79;101007.56;4861946;29;45632;-86
2022/10/05 14:12:43;;;;;;;;;5.25;5.25;;;;;22.24;90.84;101008.34;4862984;29;45310;-86
2022/10/05 14:15:28;;;;;;;;;5.50;5.00;;;;;22.23;89.94;101004.72;4878639;29;45427;-86
2022/10/05 14:17:59;;;;;;;;;4.25;4.25;;;;;22.20;90.64;101002.13;4861795;29;46988;-86
2022/10/05 14:20:30;;;;;;;;;7.25;7.25;;;;;22.20;90.44;101009.31;4870645;29;45531;-88
2022/10/05 14:23:00;;;;;;;;;8.75;7.00;;;;;22.25;89.30;101007.41;4870253;29;44669;-88
2022/10/05 14:25:28;;;;;;;;;7.00;7.00;;;;;22.18;90.81;101006.69;4861596;29;45349;-88
2022/10/05 14:28:32;;;;;;;;;8.75;6.75;;;;;22.22;90.84;101012.88;4879630;29;45304;-86
2022/10/05 14:31:12;;;;;;;;;6.00;5.75;;;;;22.28;90.97;101008.22;4861111;29;45428;-86
2022/10/05 14:33:39;;;;;;;;;6.00;6.00;;;;;22.37;91.04;101013.34;4877617;29;45386;-86
2022/10/05 14:36:17;;;;;;;;;7.25;7.25;;;;;22.43;90.49;101023.09;4878116;29;45970;-86
2022/10/05 14:39:20;;;;;;;;;5.50;5.50;;;;;22.41;90.36;101024.09;4860999;29;47041;-87
2022/10/05 14:41:52;;;;;;;;;13.00;11.00;;;;;22.29;89.62;101000.97;4876421;28;45272;-87
2022/10/05 14:44:28;;;;;;;;;7.00;7.00;;;;;22.48;89.96;101032.00;4877156;29;45746;-86
2022/10/05 14:47:10;;;;;;;;;7.25;5.25;;;;;22.46;88.53;101011.28;4877206;28;45323;-86
2022/10/05 14:50:24;;;;;;;;;7.00;7.00;;;;;22.59;89.85;101025.34;4877734;28;46621;-86
2022/10/05 14:53:13;;;;;;;;;13.00;11.00;;;;;22.62;89.18;101019.81;4861494;29;45338;-86
2022/10/05 14:56:15;;;;;;;;;;;;;;;;;;;;;
2022/10/05 14:58:43;;;;;;;;;5.25;5.00;;;;;22.49;90.05;101011.19;4877705;29;65138;-86
2022/10/05 15:05:30;;;;;;;;;6.00;6.00;;;;;22.54;89.07;101020.06;4878330;29;45695;-86
2022/10/05 15:15:25;;;;;;;;;7.75;7.00;;;;;22.55;88.26;101032.69;4799148;29;45642;-87
2022/10/05 15:18:10;;;;;;;;;6.00;6.00;;;;;22.48;88.56;101021.16;4786329;29;45310;-86
2022/10/05 15:21:38;;;;;;;;;6.00;6.00;;;;;22.46;88.60;101025.75;4798421;29;45397;-86
2022/10/05 15:24:25;;;;;;;;;7.50;7.50;;;;;22.52;89.21;101012.00;4799426;29;45423;-87
2022/10/05 15:26:58;;;;;;;;;7.00;7.00;;;;;22.73;88.15;101034.81;4783853;29;45651;-86
2022/10/05 15:30:04;;;;;;;;;6.75;6.75;;;;;22.83;86.91;101032.72;4785932;29;45264;-88
2022/10/05 15:33:06;;;;;;;;;10.00;9.00;;;;;22.93;88.13;101022.44;4782865;29;45310;-87
2022/10/05 15:35:47;;;;;;;;;6.00;6.00;;;;;23.09;88.33;101031.00;4802038;29;44840;-86
2022/10/05 15:38:38;;;;;;;;;8.00;8.00;;;;;23.20;87.60;101025.22;4801089;29;45319;-86
2022/10/05 15:41:16;;;;;;;;;10.50;8.00;;;;;23.22;86.29;101026.94;4785493;29;45195;-87
2022/10/05 15:43:54;;;;;;;;;8.25;8.00;;;;;23.18;87.47;101027.97;4787749;29;45006;-86
2022/10/05 15:46:38;;;;;;;;;7.00;7.00;;;;;23.19;88.32;101037.00;4890854;29;44982;-86
2022/10/05 15:49:21;;;;;;;;;9.00;7.75;;;;;23.14;87.37;101042.56;4889709;29;47242;-87
2022/10/05 15:52:00;;;;;;;;;6.33;6.33;;;;;23.02;87.70;101037.56;4889472;29;45606;-87
2022/10/05 15:55:01;;;;;;;;;6.50;6.50;;;;;23.01;87.96;101047.50;4889909;29;45378;-86
2022/10/05 15:57:42;;;;;;;;;7.25;7.00;;;;;22.83;87.13;101042.69;4872524;29;45413;-87
2022/10/05 16:00:21;;;;;;;;;9.75;9.75;;;;;22.70;88.52;101053.00;4842065;29;47371;-87
2022/10/05 16:03:01;;;;;;;;;8.00;7.25;;;;;22.53;89.06;101046.28;4840444;29;45752;-86
2022/10/05 16:09:18;;;;;;;;;8.33;8.33;;;;;22.25;90.49;101070.63;4868527;29;44819;-85
2022/10/05 16:12:01;;;;;;;;;6.75;6.75;;;;;21.94;91.80;101038.97;4888532;29;46921;-86
2022/10/05 16:14:37;;;;;;;;;9.00;9.00;;;;;22.16;91.61;101074.44;4874876;29;45389;-87
2022/10/05 16:17:24;;;;;;;;;9.50;8.75;;;;;22.12;92.65;101063.75;4872906;29;45394;-86
2022/10/05 16:20:05;;;;;;;;;8.00;8.00;;;;;22.14;92.42;101079.03;4865606;29;44762;-86
2022/10/05 16:22:36;;;;;;;;;6.75;6.75;;;;;22.11;92.71;101080.94;4842013;29;47490;-84
2022/10/05 16:25:44;;;;;;;;;22.33;22.33;;;;;21.96;93.53;101072.31;4858325;29;45291;-85
2022/10/05 16:28:38;;;;;;;;;11.00;9.00;;;;;21.94;93.98;101089.53;4804065;29;45027;-85
2022/10/05 16:32:03;;;;;;;;;;;;;;;;;;;;;
2022/10/05 16:35:10;;;;;;;;;10.00;8.67;;;;;21.77;94.99;101098.09;4771491;29;75065;-86
2022/10/05 16:37:58;;;;;;;;;8.00;8.00;;;;;21.60;95.46;101076.03;4799144;29;45488;-85
2022/10/05 16:40:43;;;;;;;;;8.00;8.00;;;;;21.70;96.49;101102.78;4799994;29;44958;-86
2022/10/05 16:43:39;;;;;;;;;8.50;8.00;;;;;21.67;96.91;101116.44;4800321;29;45474;-85
2022/10/05 16:46:16;;;;;;;;;10.67;10.00;;;;;21.61;97.05;101105.72;4800756;29;46746;-86
2022/10/05 16:48:53;;;;;;;;;9.00;9.00;;;;;21.49;97.44;101106.97;4801866;29;45801;-85